Time;durP1;ratioP1;P1;durP2;ratioP2;P2;SDS_P1;SDS_P2;PMS_P1;PMS_P2;Temp;Humidity;BMP_temperature;BMP_pressure;BME280_temperature;BME280_humidity;BME280_pressure;Samples;Min_cycle;Max_cycle;Signal;HPM_P1;HPM_P2
2023/12/18 00:00:10;;;;;;;18.10;10.13;;;;;;;;;;5123092;28;20446;-77
2023/12/18 00:02:37;;;;;;;20.97;10.80;;;;;;;;;;5124018;28;20447;-78
2023/12/18 00:05:07;;;;;;;20.60;10.40;;;;;;;;;;5120839;28;20458;-77
2023/12/18 00:07:34;;;;;;;24.47;10.20;;;;;;;;;;5121769;28;20450;-77
2023/12/18 00:10:08;;;;;;;23.23;11.20;;;;;;;;;;5121687;28;20521;-78
2023/12/18 00:12:36;;;;;;;16.57;10.30;;;;;;;;;;5119976;28;20472;-76
2023/12/18 00:15:03;;;;;;;21.17;9.97;;;;;;;;;;5121278;28;20453;-76
2023/12/18 00:17:31;;;;;;;17.47;10.30;;;;;;;;;;5117249;28;20516;-77
2023/12/18 00:19:59;;;;;;;16.77;9.40;;;;;;;;;;5121570;28;20443;-78
2023/12/18 00:22:28;;;;;;;18.70;10.30;;;;;;;;;;5121901;28;20454;-77
2023/12/18 00:24:55;;;;;;;20.87;10.77;;;;;;;;;;5121733;28;20453;-78
2023/12/18 00:27:23;;;;;;;18.87;10.00;;;;;;;;;;5105051;28;20464;-77
2023/12/18 00:29:51;;;;;;;17.13;7.37;;;;;;;;;;5122723;28;20447;-78
2023/12/18 00:32:18;;;;;;;15.00;9.33;;;;;;;;;;5124403;28;20453;-77
2023/12/18 00:34:46;;;;;;;17.63;9.07;;;;;;;;;;5121753;28;20940;-78
2023/12/18 00:37:13;;;;;;;22.90;11.20;;;;;;;;;;5124576;28;20451;-78
2023/12/18 00:39:42;;;;;;;18.40;11.03;;;;;;;;;;5122750;28;20466;-77
2023/12/18 00:42:09;;;;;;;12.43;7.53;;;;;;;;;;5121099;28;20453;-77
2023/12/18 00:44:37;;;;;;;15.90;8.40;;;;;;;;;;5120592;28;20484;-78
2023/12/18 00:47:04;;;;;;;22.23;10.87;;;;;;;;;;5128502;28;20748;-77
2023/12/18 00:49:32;;;;;;;14.77;9.10;;;;;;;;;;5127239;28;20450;-78
2023/12/18 00:51:59;;;;;;;20.00;9.83;;;;;;;;;;5126071;28;20451;-77
2023/12/18 00:54:27;;;;;;;17.43;9.80;;;;;;;;;;5126793;28;20481;-77
2023/12/18 00:56:56;;;;;;;17.40;9.77;;;;;;;;;;5127774;28;20462;-77
2023/12/18 00:59:23;;;;;;;14.87;9.07;;;;;;;;;;5130012;28;20656;-77
2023/12/18 01:01:51;;;;;;;12.23;7.50;;;;;;;;;;5127268;28;20515;-78
2023/12/18 01:04:18;;;;;;;16.47;9.07;;;;;;;;;;5125675;28;20518;-78
2023/12/18 01:06:46;;;;;;;19.13;9.67;;;;;;;;;;5127103;28;20453;-78
2023/12/18 01:09:14;;;;;;;14.90;8.57;;;;;;;;;;5126682;28;20911;-78
2023/12/18 01:11:41;;;;;;;16.33;10.50;;;;;;;;;;5126177;28;20466;-78
2023/12/18 01:14:11;;;;;;;17.80;10.53;;;;;;;;;;5124779;28;20480;-77
2023/12/18 01:16:39;;;;;;;18.00;8.43;;;;;;;;;;5124677;28;20441;-77
2023/12/18 01:19:06;;;;;;;21.47;11.20;;;;;;;;;;5123300;28;20512;-77
2023/12/18 01:21:33;;;;;;;16.67;6.60;;;;;;;;;;5125948;28;20553;-77
2023/12/18 01:24:01;;;;;;;19.87;10.77;;;;;;;;;;5126856;28;20455;-78
2023/12/18 01:26:28;;;;;;;21.80;9.70;;;;;;;;;;5124478;28;20449;-77
2023/12/18 01:28:55;;;;;;;22.23;9.90;;;;;;;;;;5122504;28;20518;-77
2023/12/18 01:31:25;;;;;;;19.10;10.73;;;;;;;;;;5128361;28;20500;-77
2023/12/18 01:33:54;;;;;;;14.23;8.73;;;;;;;;;;5125129;28;20525;-77
2023/12/18 01:36:21;;;;;;;17.97;9.60;;;;;;;;;;5125382;28;20868;-77
2023/12/18 01:38:48;;;;;;;18.03;9.50;;;;;;;;;;5127638;28;20458;-78
2023/12/18 01:41:16;;;;;;;21.77;9.17;;;;;;;;;;5124486;28;20464;-78
2023/12/18 01:43:43;;;;;;;16.70;10.10;;;;;;;;;;5126468;28;20448;-78
2023/12/18 01:46:11;;;;;;;22.80;10.00;;;;;;;;;;5124883;28;20496;-77
2023/12/18 01:48:40;;;;;;;24.13;10.57;;;;;;;;;;5124288;28;20726;-77
2023/12/18 01:51:08;;;;;;;16.80;9.33;;;;;;;;;;5123325;28;20453;-77
2023/12/18 01:53:37;;;;;;;19.40;8.67;;;;;;;;;;5128532;28;20486;-78
2023/12/18 01:56:05;;;;;;;13.53;7.23;;;;;;;;;;5127833;28;20456;-79
2023/12/18 01:58:33;;;;;;;15.83;8.73;;;;;;;;;;5125857;28;20447;-77
2023/12/18 02:01:01;;;;;;;19.40;9.33;;;;;;;;;;5125706;28;20731;-77
2023/12/18 02:03:29;;;;;;;16.73;9.13;;;;;;;;;;5127739;28;20557;-78
2023/12/18 02:05:58;;;;;;;14.60;9.27;;;;;;;;;;5127440;28;20455;-78
2023/12/18 02:08:26;;;;;;;16.00;9.50;;;;;;;;;;5126596;28;20489;-78
2023/12/18 02:10:53;;;;;;;26.77;10.10;;;;;;;;;;5126953;28;20454;-77
2023/12/18 02:13:21;;;;;;;18.13;9.37;;;;;;;;;;5127862;28;20448;-79
2023/12/18 02:15:49;;;;;;;18.40;10.00;;;;;;;;;;5126960;28;20880;-77
2023/12/18 02:18:16;;;;;;;19.17;9.97;;;;;;;;;;5128148;28;20466;-77
2023/12/18 02:20:43;;;;;;;16.50;9.53;;;;;;;;;;5127307;28;20441;-77
2023/12/18 02:23:18;;;;;;;17.33;9.73;;;;;;;;;;5128983;28;20454;-78
2023/12/18 02:25:47;;;;;;;17.93;11.50;;;;;;;;;;5127809;28;20518;-78
2023/12/18 02:28:17;;;;;;;20.97;10.57;;;;;;;;;;5127050;28;20469;-78
2023/12/18 02:30:45;;;;;;;19.73;10.20;;;;;;;;;;5126260;28;20862;-77
2023/12/18 02:33:12;;;;;;;17.60;9.70;;;;;;;;;;5121988;28;20454;-76
2023/12/18 02:35:40;;;;;;;16.60;10.17;;;;;;;;;;5125318;28;20442;-78
2023/12/18 02:38:07;;;;;;;17.87;9.23;;;;;;;;;;5124574;28;20548;-78
2023/12/18 02:40:37;;;;;;;16.30;10.03;;;;;;;;;;5127352;28;20445;-77
2023/12/18 02:43:05;;;;;;;15.50;9.80;;;;;;;;;;5125783;28;20519;-78
2023/12/18 02:45:32;;;;;;;24.33;10.17;;;;;;;;;;5126884;28;20475;-78
2023/12/18 02:48:00;;;;;;;19.50;9.90;;;;;;;;;;5128637;28;20454;-77
2023/12/18 02:50:27;;;;;;;19.90;10.30;;;;;;;;;;5124840;28;20510;-77
2023/12/18 02:52:54;;;;;;;18.70;10.30;;;;;;;;;;5125512;28;20545;-77
2023/12/18 02:55:22;;;;;;;17.60;11.13;;;;;;;;;;5124697;28;20488;-77
2023/12/18 02:57:50;;;;;;;21.13;11.33;;;;;;;;;;5124406;28;20451;-78
2023/12/18 03:00:18;;;;;;;20.07;10.33;;;;;;;;;;5122982;28;20918;-78
2023/12/18 03:02:46;;;;;;;17.83;10.10;;;;;;;;;;5123814;28;20477;-77
2023/12/18 03:05:14;;;;;;;22.67;11.43;;;;;;;;;;5123380;28;20529;-77
2023/12/18 03:07:42;;;;;;;15.50;10.20;;;;;;;;;;5122261;28;20706;-78
2023/12/18 03:10:09;;;;;;;16.57;7.43;;;;;;;;;;5123043;28;20460;-77
2023/12/18 03:12:37;;;;;;;18.50;9.87;;;;;;;;;;5124446;28;20485;-78
2023/12/18 03:15:06;;;;;;;15.90;8.83;;;;;;;;;;5125668;28;20489;-77
2023/12/18 03:17:34;;;;;;;18.70;9.70;;;;;;;;;;5125362;28;20878;-77
2023/12/18 03:20:09;;;;;;;17.33;8.40;;;;;;;;;;5126325;28;20464;-78
2023/12/18 03:22:36;;;;;;;16.87;10.70;;;;;;;;;;5125624;28;20956;-77
2023/12/18 03:25:04;;;;;;;17.03;9.70;;;;;;;;;;5123375;28;20540;-78
2023/12/18 03:27:31;;;;;;;14.20;9.90;;;;;;;;;;5125851;28;20454;-77
2023/12/18 03:29:59;;;;;;;20.60;9.97;;;;;;;;;;5123533;28;20453;-78
2023/12/18 03:32:28;;;;;;;21.87;10.67;;;;;;;;;;5127804;28;20457;-78
2023/12/18 03:34:55;;;;;;;16.67;9.70;;;;;;;;;;5125318;28;20490;-78
2023/12/18 03:37:22;;;;;;;23.10;12.20;;;;;;;;;;5127119;28;20467;-77
2023/12/18 03:39:50;;;;;;;22.97;10.20;;;;;;;;;;5125344;28;20462;-78
2023/12/18 03:42:23;;;;;;;19.60;11.70;;;;;;;;;;5125641;28;20454;-78
2023/12/18 03:44:51;;;;;;;21.13;10.10;;;;;;;;;;5123393;28;20462;-78
2023/12/18 03:47:18;;;;;;;20.33;10.70;;;;;;;;;;5123372;28;20446;-77
2023/12/18 03:49:46;;;;;;;17.57;9.90;;;;;;;;;;5120964;28;20457;-77
2023/12/18 03:52:16;;;;;;;22.50;10.80;;;;;;;;;;5122277;28;20854;-77
2023/12/18 03:54:43;;;;;;;13.40;8.33;;;;;;;;;;5122469;28;20495;-78
2023/12/18 03:57:11;;;;;;;17.70;9.80;;;;;;;;;;5121541;28;20732;-78
2023/12/18 03:59:38;;;;;;;19.03;10.00;;;;;;;;;;5124624;28;20453;-78
2023/12/18 04:02:05;;;;;;;18.37;9.70;;;;;;;;;;5126345;28;20562;-78
2023/12/18 04:04:34;;;;;;;16.33;9.43;;;;;;;;;;5127005;28;20491;-77
2023/12/18 04:07:03;;;;;;;13.83;7.30;;;;;;;;;;5122603;28;20451;-79
2023/12/18 04:09:31;;;;;;;17.17;8.60;;;;;;;;;;5124860;28;20449;-78
2023/12/18 04:11:58;;;;;;;15.00;9.10;;;;;;;;;;5126930;28;20481;-78
2023/12/18 04:14:26;;;;;;;19.70;11.33;;;;;;;;;;5127711;28;20482;-78
2023/12/18 04:16:53;;;;;;;20.43;10.40;;;;;;;;;;5125845;28;20814;-78
2023/12/18 04:19:20;;;;;;;12.17;7.83;;;;;;;;;;5124529;28;20458;-77
2023/12/18 04:21:48;;;;;;;19.47;10.07;;;;;;;;;;5124310;28;20490;-78
2023/12/18 04:24:17;;;;;;;12.80;9.07;;;;;;;;;;5120422;28;20523;-77
2023/12/18 04:26:45;;;;;;;22.40;10.47;;;;;;;;;;5124205;28;20445;-78
2023/12/18 04:29:12;;;;;;;19.57;9.90;;;;;;;;;;5123010;28;20501;-78
2023/12/18 04:31:39;;;;;;;16.50;9.40;;;;;;;;;;5124570;28;20464;-77
2023/12/18 04:34:07;;;;;;;16.60;9.83;;;;;;;;;;5131257;28;20806;-78
2023/12/18 04:36:38;;;;;;;17.03;9.90;;;;;;;;;;5125674;28;20443;-78
2023/12/18 04:39:05;;;;;;;14.70;9.70;;;;;;;;;;5125513;28;21039;-76
2023/12/18 04:41:34;;;;;;;15.60;9.90;;;;;;;;;;5124919;28;20450;-77
2023/12/18 04:44:02;;;;;;;18.67;11.40;;;;;;;;;;5124587;28;20537;-78
2023/12/18 04:46:35;;;;;;;12.97;9.07;;;;;;;;;;5125260;28;20930;-78
2023/12/18 04:49:02;;;;;;;20.50;12.17;;;;;;;;;;5130513;28;20530;-78
2023/12/18 04:51:30;;;;;;;23.33;11.47;;;;;;;;;;5130434;28;20929;-78
2023/12/18 04:53:57;;;;;;;20.30;11.17;;;;;;;;;;5131000;28;20496;-77
2023/12/18 04:56:25;;;;;;;21.17;9.67;;;;;;;;;;5128966;28;20520;-77
2023/12/18 04:58:56;;;;;;;23.03;10.50;;;;;;;;;;5129784;28;20461;-77
2023/12/18 05:01:26;;;;;;;22.80;11.00;;;;;;;;;;5131974;28;20451;-77
2023/12/18 05:03:56;;;;;;;15.00;7.80;;;;;;;;;;5132197;28;20536;-76
2023/12/18 05:06:24;;;;;;;17.17;8.73;;;;;;;;;;5131996;28;20426;-77
2023/12/18 05:08:52;;;;;;;21.37;11.03;;;;;;;;;;5132714;28;20454;-77
2023/12/18 05:11:20;;;;;;;17.63;9.80;;;;;;;;;;5109742;28;20532;-77
2023/12/18 05:13:48;;;;;;;23.57;11.47;;;;;;;;;;5123437;28;20515;-77
2023/12/18 05:16:18;;;;;;;24.30;12.10;;;;;;;;;;5120522;28;20945;-78
2023/12/18 05:18:46;;;;;;;19.03;9.90;;;;;;;;;;5125451;28;20449;-78
2023/12/18 05:21:13;;;;;;;18.20;9.20;;;;;;;;;;5124230;27;20475;-77
2023/12/18 05:23:41;;;;;;;23.07;11.80;;;;;;;;;;5123461;28;20453;-78
2023/12/18 05:26:08;;;;;;;15.30;10.70;;;;;;;;;;5125661;28;20487;-78
2023/12/18 05:28:36;;;;;;;18.17;10.10;;;;;;;;;;5123496;28;20844;-78
2023/12/18 05:31:03;;;;;;;19.27;10.30;;;;;;;;;;5123082;28;20603;-77
2023/12/18 05:33:32;;;;;;;21.80;11.33;;;;;;;;;;5125208;28;20446;-77
2023/12/18 05:36:00;;;;;;;16.27;10.10;;;;;;;;;;5122195;28;20524;-77
2023/12/18 05:38:27;;;;;;;16.20;11.03;;;;;;;;;;5124001;28;20492;-78
2023/12/18 05:40:55;;;;;;;18.70;11.00;;;;;;;;;;5122281;28;20446;-77
2023/12/18 05:43:22;;;;;;;27.10;10.40;;;;;;;;;;5123715;28;20458;-79
2023/12/18 05:45:50;;;;;;;13.83;11.00;;;;;;;;;;5127414;28;20572;-77
2023/12/18 05:48:17;;;;;;;18.57;10.63;;;;;;;;;;5125455;28;20515;-78
2023/12/18 05:50:46;;;;;;;14.87;10.00;;;;;;;;;;5124831;28;20455;-78
2023/12/18 05:53:13;;;;;;;20.93;11.90;;;;;;;;;;5125213;28;20457;-77
2023/12/18 05:55:41;;;;;;;23.87;12.20;;;;;;;;;;5119568;28;20583;-78
2023/12/18 05:58:08;;;;;;;17.10;8.90;;;;;;;;;;5122329;28;20772;-78
2023/12/18 06:00:38;;;;;;;17.20;10.80;;;;;;;;;;5126208;28;20445;-76
2023/12/18 06:03:05;;;;;;;18.50;9.63;;;;;;;;;;5122931;28;20482;-77
2023/12/18 06:05:33;;;;;;;16.00;10.80;;;;;;;;;;5122272;28;20871;-78
2023/12/18 06:08:02;;;;;;;18.27;9.77;;;;;;;;;;5127179;28;20464;-78
2023/12/18 06:10:29;;;;;;;20.20;11.83;;;;;;;;;;5125587;28;20444;-77
2023/12/18 06:12:57;;;;;;;16.63;10.73;;;;;;;;;;5129351;28;20633;-78
2023/12/18 06:15:25;;;;;;;13.43;9.00;;;;;;;;;;5122745;28;20517;-78
2023/12/18 06:17:52;;;;;;;18.17;10.20;;;;;;;;;;5124766;28;20512;-78
2023/12/18 06:20:19;;;;;;;15.07;9.43;;;;;;;;;;5124807;28;20458;-78
2023/12/18 06:22:47;;;;;;;12.63;7.07;;;;;;;;;;5128283;28;20458;-78
2023/12/18 06:25:16;;;;;;;18.10;9.07;;;;;;;;;;5121122;28;20536;-77
2023/12/18 06:27:44;;;;;;;18.03;10.27;;;;;;;;;;5120443;28;20486;-78
2023/12/18 06:30:16;;;;;;;19.50;11.47;;;;;;;;;;5118667;28;20458;-77
2023/12/18 06:32:44;;;;;;;15.00;9.70;;;;;;;;;;5114834;28;20757;-77
2023/12/18 06:35:11;;;;;;;20.00;12.30;;;;;;;;;;5118530;28;20478;-78
2023/12/18 06:37:39;;;;;;;16.80;11.47;;;;;;;;;;5115626;28;20495;-77
2023/12/18 06:40:10;;;;;;;18.13;10.10;;;;;;;;;;5117912;28;21093;-77
2023/12/18 06:42:44;;;;;;;20.70;9.83;;;;;;;;;;5117137;28;20588;-77
2023/12/18 06:45:15;;;;;;;26.10;15.30;;;;;;;;;;5120107;28;20476;-77
2023/12/18 06:47:43;;;;;;;27.23;11.73;;;;;;;;;;5118984;28;20677;-78
2023/12/18 06:50:11;;;;;;;15.20;7.77;;;;;;;;;;5097233;28;20772;-76
2023/12/18 06:52:43;;;;;;;15.03;9.67;;;;;;;;;;5076815;28;20465;-76
2023/12/18 06:55:11;;;;;;;21.93;13.33;;;;;;;;;;5077039;28;20491;-77
2023/12/18 06:57:40;;;;;;;21.87;11.20;;;;;;;;;;5076962;28;20454;-77
2023/12/18 07:00:09;;;;;;;27.90;13.67;;;;;;;;;;5076545;28;20453;-78
2023/12/18 07:02:37;;;;;;;23.40;14.20;;;;;;;;;;5080211;28;20457;-78
2023/12/18 07:05:05;;;;;;;16.73;13.47;;;;;;;;;;5078127;28;20518;-77
2023/12/18 07:07:37;;;;;;;21.63;13.30;;;;;;;;;;5079765;28;20487;-78
2023/12/18 07:10:08;;;;;;;28.03;13.33;;;;;;;;;;5096546;28;20474;-77
2023/12/18 07:12:35;;;;;;;23.27;14.43;;;;;;;;;;5104585;28;20446;-77
2023/12/18 07:15:05;;;;;;;18.27;12.33;;;;;;;;;;5101471;28;20695;-77
2023/12/18 07:17:33;;;;;;;20.67;12.70;;;;;;;;;;5099537;28;20456;-77
2023/12/18 07:20:06;;;;;;;16.63;11.07;;;;;;;;;;5101050;28;20465;-77
2023/12/18 07:22:34;;;;;;;20.47;11.30;;;;;;;;;;5100759;28;20662;-78
2023/12/18 07:25:02;;;;;;;20.33;12.17;;;;;;;;;;5097652;28;20472;-77
2023/12/18 07:27:30;;;;;;;18.40;11.73;;;;;;;;;;5092818;28;20717;-77
2023/12/18 07:29:59;;;;;;;16.87;11.10;;;;;;;;;;5075997;28;20886;-77
2023/12/18 07:32:28;;;;;;;20.60;12.50;;;;;;;;;;5079886;28;20470;-77
2023/12/18 07:34:59;;;;;;;21.97;12.50;;;;;;;;;;5077633;28;20870;-77
2023/12/18 07:37:27;;;;;;;18.83;11.17;;;;;;;;;;5077428;28;21042;-77
2023/12/18 07:39:55;;;;;;;21.40;10.83;;;;;;;;;;5077808;28;20742;-78
2023/12/18 07:42:23;;;;;;;23.67;12.93;;;;;;;;;;5078507;28;20551;-78
2023/12/18 07:44:50;;;;;;;19.77;11.47;;;;;;;;;;5078284;28;20471;-78
2023/12/18 07:47:17;;;;;;;19.70;12.30;;;;;;;;;;5079995;28;20447;-78
2023/12/18 07:49:47;;;;;;;21.60;13.47;;;;;;;;;;5075942;28;20460;-76
2023/12/18 07:52:16;;;;;;;22.33;11.03;;;;;;;;;;5098499;28;20482;-77
2023/12/18 07:54:44;;;;;;;20.20;12.80;;;;;;;;;;5080240;28;20747;-77
2023/12/18 07:57:11;;;;;;;19.00;12.27;;;;;;;;;;5080784;28;20573;-76
2023/12/18 07:59:39;;;;;;;18.37;13.30;;;;;;;;;;5085813;28;20517;-77
2023/12/18 08:02:07;;;;;;;21.67;12.10;;;;;;;;;;5087062;28;20455;-77
2023/12/18 08:04:35;;;;;;;25.53;12.60;;;;;;;;;;5107409;28;20519;-77
2023/12/18 08:07:05;;;;;;;24.77;15.37;;;;;;;;;;5106139;28;20459;-79
2023/12/18 08:09:33;;;;;;;19.37;10.70;;;;;;;;;;5082637;28;20454;-76
2023/12/18 08:12:00;;;;;;;23.83;14.40;;;;;;;;;;5085948;28;20466;-77
2023/12/18 08:14:31;;;;;;;22.20;12.97;;;;;;;;;;5084180;28;20494;-77
2023/12/18 08:16:59;;;;;;;29.27;14.67;;;;;;;;;;5089977;28;20549;-78
2023/12/18 08:19:27;;;;;;;23.33;13.80;;;;;;;;;;5083410;28;20556;-78
2023/12/18 08:21:55;;;;;;;30.00;15.00;;;;;;;;;;5084012;28;20447;-78
2023/12/18 08:24:25;;;;;;;20.93;11.70;;;;;;;;;;5086347;28;20636;-77
2023/12/18 08:26:53;;;;;;;25.13;13.93;;;;;;;;;;5085878;28;20458;-77
2023/12/18 08:29:21;;;;;;;22.87;13.33;;;;;;;;;;5085021;28;20459;-78
2023/12/18 08:31:48;;;;;;;20.60;13.90;;;;;;;;;;5082618;28;20459;-76
2023/12/18 08:34:18;;;;;;;22.80;14.53;;;;;;;;;;5080247;28;20446;-77
2023/12/18 08:36:46;;;;;;;30.27;14.37;;;;;;;;;;5080054;28;20568;-78
2023/12/18 08:39:14;;;;;;;24.93;15.37;;;;;;;;;;5082608;28;20482;-79
2023/12/18 08:41:49;;;;;;;24.03;13.53;;;;;;;;;;5089622;28;20473;-78
2023/12/18 08:44:18;;;;;;;23.03;13.30;;;;;;;;;;5105690;28;20458;-78
2023/12/18 08:46:48;;;;;;;23.07;13.30;;;;;;;;;;5094376;28;20843;-78
2023/12/18 08:49:20;;;;;;;22.47;14.00;;;;;;;;;;5104467;28;20501;-78
2023/12/18 08:51:47;;;;;;;29.57;16.20;;;;;;;;;;5104143;28;20464;-78
2023/12/18 08:54:15;;;;;;;17.57;12.40;;;;;;;;;;5100994;28;20453;-78
2023/12/18 08:56:51;;;;;;;24.60;14.50;;;;;;;;;;5106504;28;20554;-77
2023/12/18 08:59:21;;;;;;;29.73;17.07;;;;;;;;;;5109469;28;20562;-77
2023/12/18 09:01:49;;;;;;;27.20;14.90;;;;;;;;;;5102370;28;20533;-78
2023/12/18 09:04:17;;;;;;;22.13;13.90;;;;;;;;;;5107467;28;20462;-78
2023/12/18 09:06:47;;;;;;;27.63;14.80;;;;;;;;;;5112890;28;20454;-78
2023/12/18 09:09:16;;;;;;;22.63;13.07;;;;;;;;;;5109430;28;20464;-77
2023/12/18 09:11:52;;;;;;;26.67;15.40;;;;;;;;;;5108386;28;20884;-79
2023/12/18 09:14:28;;;;;;;25.97;15.20;;;;;;;;;;5118847;28;20478;-78
2023/12/18 09:16:55;;;;;;;27.20;15.50;;;;;;;;;;5096217;28;20550;-78
2023/12/18 09:19:23;;;;;;;27.87;15.23;;;;;;;;;;5111204;28;20456;-78
2023/12/18 09:21:51;;;;;;;24.23;14.83;;;;;;;;;;5110865;28;20969;-78
2023/12/18 09:24:19;;;;;;;22.60;14.03;;;;;;;;;;5105193;28;20478;-78
2023/12/18 09:27:05;;;;;;;24.93;13.60;;;;;;;;;;5105880;28;20443;-77
2023/12/18 09:29:32;;;;;;;29.23;15.37;;;;;;;;;;5107192;28;20480;-77
2023/12/18 09:32:00;;;;;;;23.43;12.50;;;;;;;;;;5106803;28;20446;-77
2023/12/18 09:34:27;;;;;;;24.43;14.13;;;;;;;;;;5096788;28;20458;-77
2023/12/18 09:36:56;;;;;;;22.97;13.20;;;;;;;;;;5104454;28;20474;-79
2023/12/18 09:39:24;;;;;;;27.60;13.50;;;;;;;;;;5104308;28;20567;-78
2023/12/18 09:41:54;;;;;;;30.03;13.97;;;;;;;;;;5089218;28;20456;-77
2023/12/18 09:44:21;;;;;;;25.27;14.50;;;;;;;;;;5087110;28;20451;-80
2023/12/18 09:46:49;;;;;;;25.60;13.37;;;;;;;;;;5085010;28;20867;-78
2023/12/18 09:49:18;;;;;;;33.00;18.43;;;;;;;;;;5106086;28;20466;-78
2023/12/18 09:51:47;;;;;;;24.77;15.07;;;;;;;;;;5115772;28;20465;-77
2023/12/18 09:54:16;;;;;;;26.50;16.40;;;;;;;;;;5098022;28;20461;-78
2023/12/18 09:56:45;;;;;;;22.13;14.37;;;;;;;;;;5094639;28;20476;-79
2023/12/18 09:59:17;;;;;;;26.10;15.17;;;;;;;;;;5100933;28;20444;-78
2023/12/18 10:01:45;;;;;;;24.87;13.80;;;;;;;;;;5108191;28;20907;-80
2023/12/18 10:04:15;;;;;;;24.30;15.13;;;;;;;;;;5111056;28;20511;-78
2023/12/18 10:07:06;;;;;;;26.60;14.47;;;;;;;;;;5091887;28;20467;-79
2023/12/18 10:09:45;;;;;;;28.30;14.03;;;;;;;;;;5100714;28;20469;-78
2023/12/18 10:12:20;;;;;;;28.07;14.70;;;;;;;;;;5088651;28;20454;-79
2023/12/18 10:14:50;;;;;;;22.47;14.43;;;;;;;;;;5084020;28;20444;-78
2023/12/18 10:17:18;;;;;;;31.00;18.03;;;;;;;;;;5085418;28;20479;-79
2023/12/18 10:19:46;;;;;;;24.53;13.60;;;;;;;;;;5090854;28;20471;-78
2023/12/18 10:22:15;;;;;;;29.93;14.00;;;;;;;;;;5105577;28;20462;-79
2023/12/18 10:24:44;;;;;;;22.63;14.10;;;;;;;;;;5090312;28;20460;-79
2023/12/18 10:27:13;;;;;;;21.53;13.63;;;;;;;;;;5086605;28;20516;-78
2023/12/18 10:30:06;;;;;;;24.43;14.30;;;;;;;;;;5106279;28;20767;-79
2023/12/18 10:32:47;;;;;;;23.37;13.23;;;;;;;;;;5090514;28;20471;-79
2023/12/18 10:35:16;;;;;;;19.70;12.70;;;;;;;;;;5105589;28;20481;-79
2023/12/18 10:37:48;;;;;;;27.53;16.67;;;;;;;;;;5106453;28;20479;-78
2023/12/18 10:40:20;;;;;;;25.87;14.50;;;;;;;;;;5102466;28;20514;-79
2023/12/18 10:42:52;;;;;;;28.73;15.93;;;;;;;;;;5103263;28;20450;-79
2023/12/18 10:45:20;;;;;;;20.70;13.17;;;;;;;;;;5100801;28;20470;-79
2023/12/18 10:47:54;;;;;;;28.47;13.87;;;;;;;;;;5104608;28;20477;-79
2023/12/18 10:50:22;;;;;;;23.03;14.07;;;;;;;;;;5104081;28;20469;-78
2023/12/18 10:52:54;;;;;;;25.90;12.83;;;;;;;;;;5105637;28;20427;-78
2023/12/18 10:55:22;;;;;;;19.20;13.13;;;;;;;;;;5100513;28;20466;-78
2023/12/18 10:57:51;;;;;;;26.50;13.47;;;;;;;;;;5096432;28;20541;-80
2023/12/18 11:00:21;;;;;;;24.23;13.13;;;;;;;;;;5100958;28;20462;-79
2023/12/18 11:02:50;;;;;;;28.37;11.60;;;;;;;;;;5104677;28;20464;-80
2023/12/18 11:05:20;;;;;;;20.13;12.77;;;;;;;;;;5105539;28;20548;-79
2023/12/18 11:07:48;;;;;;;26.57;14.00;;;;;;;;;;5087073;28;20451;-79
2023/12/18 11:10:24;;;;;;;23.10;13.63;;;;;;;;;;5087392;28;20764;-80
2023/12/18 11:13:04;;;;;;;20.83;12.70;;;;;;;;;;5085410;28;20470;-79
2023/12/18 11:15:39;;;;;;;16.50;11.47;;;;;;;;;;5085755;28;20813;-80
2023/12/18 11:18:17;;;;;;;24.03;10.30;;;;;;;;;;5087981;28;20491;-80
2023/12/18 11:20:48;;;;;;;25.10;14.20;;;;;;;;;;5087768;28;20459;-80
2023/12/18 11:23:17;;;;;;;27.27;13.73;;;;;;;;;;5100919;28;20458;-79
2023/12/18 11:25:50;;;;;;;27.23;13.07;;;;;;;;;;5093354;28;20460;-80
2023/12/18 11:28:20;;;;;;;25.73;13.40;;;;;;;;;;5100558;28;20450;-80
2023/12/18 11:30:47;;;;;;;19.33;9.53;;;;;;;;;;5101743;28;20454;-79
2023/12/18 11:33:29;;;;;;;26.03;12.70;;;;;;;;;;5086517;28;20451;-80
2023/12/18 11:36:00;;;;;;;22.73;12.33;;;;;;;;;;5102686;28;20469;-80
2023/12/18 11:38:32;;;;;;;20.70;12.70;;;;;;;;;;5100062;28;21038;-78
2023/12/18 11:41:00;;;;;;;24.33;12.37;;;;;;;;;;5097716;28;20446;-79
2023/12/18 11:43:40;;;;;;;18.77;11.80;;;;;;;;;;5105076;28;20485;-80
2023/12/18 11:46:09;;;;;;;33.87;13.00;;;;;;;;;;5086372;28;20995;-80
2023/12/18 11:48:41;;;;;;;18.10;11.40;;;;;;;;;;5095857;28;20459;-80
2023/12/18 11:51:11;;;;;;;18.60;12.40;;;;;;;;;;5105224;28;20478;-79
2023/12/18 11:53:43;;;;;;;17.50;10.93;;;;;;;;;;5105618;28;20473;-80
2023/12/18 11:56:12;;;;;;;18.57;12.40;;;;;;;;;;5108132;28;20458;-79
2023/12/18 11:58:42;;;;;;;20.90;12.77;;;;;;;;;;5104408;28;20517;-80
2023/12/18 12:01:10;;;;;;;21.80;11.57;;;;;;;;;;5105756;28;20464;-76
2023/12/18 12:03:39;;;;;;;21.40;12.33;;;;;;;;;;5104559;28;20457;-79
2023/12/18 12:06:07;;;;;;;22.17;12.50;;;;;;;;;;5103453;28;20574;-78
2023/12/18 12:08:35;;;;;;;21.27;10.40;;;;;;;;;;5098604;28;20450;-78
2023/12/18 12:11:05;;;;;;;18.93;11.07;;;;;;;;;;5104348;28;21157;-78
2023/12/18 12:13:33;;;;;;;20.57;11.40;;;;;;;;;;5100084;28;20462;-78
2023/12/18 12:16:10;;;;;;;21.23;12.67;;;;;;;;;;5089240;28;20464;-78
2023/12/18 12:18:47;;;;;;;23.50;11.67;;;;;;;;;;5094282;28;20482;-77
2023/12/18 12:21:16;;;;;;;24.90;12.33;;;;;;;;;;5089381;28;20449;-78
2023/12/18 12:23:43;;;;;;;22.17;12.23;;;;;;;;;;5083932;28;20445;-78
2023/12/18 12:26:11;;;;;;;19.83;11.17;;;;;;;;;;5091551;28;20501;-79
2023/12/18 12:28:39;;;;;;;23.70;13.33;;;;;;;;;;5081181;28;20460;-76
2023/12/18 12:31:07;;;;;;;17.50;12.40;;;;;;;;;;5090895;28;20460;-77
2023/12/18 12:33:42;;;;;;;17.67;12.30;;;;;;;;;;5093964;28;20473;-79
2023/12/18 12:36:11;;;;;;;18.40;10.53;;;;;;;;;;5093723;28;20527;-77
2023/12/18 12:38:38;;;;;;;17.30;10.10;;;;;;;;;;5100316;28;21156;-78
2023/12/18 12:41:06;;;;;;;17.90;11.33;;;;;;;;;;5119307;28;20875;-78
2023/12/18 12:43:35;;;;;;;22.37;15.10;;;;;;;;;;5124688;28;20502;-79
2023/12/18 12:46:02;;;;;;;13.10;7.90;;;;;;;;;;5123649;28;20477;-79
2023/12/18 12:48:30;;;;;;;14.97;9.60;;;;;;;;;;5106526;28;20470;-78
2023/12/18 12:50:58;;;;;;;20.23;11.50;;;;;;;;;;5106095;28;20448;-78
2023/12/18 12:53:27;;;;;;;17.40;10.67;;;;;;;;;;5087445;28;20439;-78
2023/12/18 12:55:58;;;;;;;18.13;9.73;;;;;;;;;;5091808;28;20447;-78
2023/12/18 12:58:33;;;;;;;18.00;11.57;;;;;;;;;;5105816;28;20496;-78
2023/12/18 13:01:01;;;;;;;20.40;12.17;;;;;;;;;;5105403;28;20468;-78
2023/12/18 13:03:32;;;;;;;17.90;11.37;;;;;;;;;;5099870;28;20454;-78
2023/12/18 13:06:01;;;;;;;20.23;10.27;;;;;;;;;;5103006;28;20530;-78
2023/12/18 13:08:30;;;;;;;18.90;11.43;;;;;;;;;;5101082;28;20447;-78
2023/12/18 13:10:59;;;;;;;19.27;12.13;;;;;;;;;;5098348;28;20544;-77
2023/12/18 13:13:28;;;;;;;18.50;12.17;;;;;;;;;;5079029;28;20468;-77
2023/12/18 13:15:55;;;;;;;18.00;11.50;;;;;;;;;;5091222;28;20474;-78
2023/12/18 13:18:23;;;;;;;17.20;11.07;;;;;;;;;;5097979;28;20517;-78
2023/12/18 13:20:52;;;;;;;18.57;13.20;;;;;;;;;;5109043;28;20450;-77
2023/12/18 13:23:21;;;;;;;19.27;11.00;;;;;;;;;;5093413;28;20459;-78
2023/12/18 13:25:51;;;;;;;22.00;13.10;;;;;;;;;;5089390;28;20457;-79
2023/12/18 13:28:19;;;;;;;21.10;14.37;;;;;;;;;;5087544;28;20466;-78
2023/12/18 13:30:46;;;;;;;19.47;13.43;;;;;;;;;;5089180;28;20458;-78
2023/12/18 13:33:15;;;;;;;21.27;13.30;;;;;;;;;;5092872;28;20468;-78
2023/12/18 13:35:43;;;;;;;23.20;14.30;;;;;;;;;;5106960;28;20442;-78
2023/12/18 13:38:11;;;;;;;22.47;14.20;;;;;;;;;;5106696;28;20475;-78
2023/12/18 13:40:39;;;;;;;23.07;12.70;;;;;;;;;;5105666;28;20932;-78
2023/12/18 13:43:08;;;;;;;19.27;14.13;;;;;;;;;;5102809;28;20792;-79
2023/12/18 13:45:35;;;;;;;17.67;11.77;;;;;;;;;;5101072;28;20485;-79
2023/12/18 13:48:03;;;;;;;21.47;13.03;;;;;;;;;;5092774;28;20498;-78
2023/12/18 13:50:30;;;;;;;23.93;13.70;;;;;;;;;;5083794;28;20499;-79
2023/12/18 13:52:58;;;;;;;21.80;14.27;;;;;;;;;;5081220;28;20473;-78
2023/12/18 13:55:26;;;;;;;20.80;12.47;;;;;;;;;;5082730;28;20565;-78
2023/12/18 13:57:53;;;;;;;22.10;13.80;;;;;;;;;;5085948;28;20519;-79
2023/12/18 14:00:22;;;;;;;21.07;13.97;;;;;;;;;;5106415;28;20509;-79
2023/12/18 14:02:49;;;;;;;24.30;14.67;;;;;;;;;;5090702;28;20579;-79
2023/12/18 14:05:18;;;;;;;24.10;14.13;;;;;;;;;;5087346;28;20444;-80
2023/12/18 14:07:46;;;;;;;22.13;14.30;;;;;;;;;;5099170;28;20439;-79
2023/12/18 14:10:17;;;;;;;26.50;13.70;;;;;;;;;;5102019;28;20450;-79
2023/12/18 14:12:44;;;;;;;21.37;13.90;;;;;;;;;;5093360;28;20479;-78
2023/12/18 14:15:13;;;;;;;24.13;14.17;;;;;;;;;;5090372;28;20466;-78
2023/12/18 14:17:43;;;;;;;24.90;14.57;;;;;;;;;;5093861;28;20504;-78
2023/12/18 14:20:20;;;;;;;21.53;13.90;;;;;;;;;;5095264;28;20465;-77
2023/12/18 14:22:47;;;;;;;23.70;15.33;;;;;;;;;;5096941;28;20473;-78
2023/12/18 14:25:15;;;;;;;22.50;14.23;;;;;;;;;;5115002;28;20442;-79
2023/12/18 14:27:42;;;;;;;25.17;15.93;;;;;;;;;;5121070;28;20532;-78
2023/12/18 14:30:14;;;;;;;20.63;13.03;;;;;;;;;;5119900;28;20490;-78